KFLL/FLL METAR and TAF weather

Enter ICAO airport designator
Station Type Date Time Source
KFLL METAR 2019/02/16 16:53 UTC NOAA

KFLL 161653Z 18009KT 150V210 10SM FEW045 SCT250 26/17 A2994 RMK AO2 SLP139 T02560167


Station Type Date Time Source
KFLL Decoded METAR 2019/02/16 16:53 UTC NOAA

FORT LAUDERDALE/HOLLYWOOD, FL, United States (KFLL) 26-04N 080-09W 30M
Feb 16, 2019 - 11:53 AM EST / 2019.02.16 1653 UTC
Wind: from the S (180 degrees) at 10 MPH (9 KT) (direction variable):0
Visibility: 10 mile(s):0
Sky conditions: partly cloudy
Temperature: 78.1 F (25.6 C)
Dew Point: 62.1 F (16.7 C)
Relative Humidity: 57%
Pressure (altimeter): 29.94 in. Hg (1013 hPa)
ob: KFLL 161653Z 18009KT 150V210 10SM FEW045 SCT250 26/17 A2994 RMK AO2 SLP139 T02560167
cycle: 17

Station Type Date Time Source
KFLL TAF 2019/02/16 18:30 UTC NOAA

TAF KFLL 161723Z 1618/1724 20010KT P6SM SCT030
FM170100 VRB03KT P6SM FEW030
FM171500 16008KT P6SM SCT025 SCT050


Example: see airport list